sensor_id;sensor_type;location;lat;lon;timestamp;temperature;humidity
26270;DHT22;15937;50.612;6.656;2022-12-10T00:02:35;0.80;99.90
26270;DHT22;15937;50.612;6.656;2022-12-10T00:06:37;0.70;99.90
26270;DHT22;15937;50.612;6.656;2022-12-10T00:10:39;0.80;99.90
26270;DHT22;15937;50.612;6.656;2022-12-10T00:14:41;0.80;99.90
26270;DHT22;15937;50.612;6.656;2022-12-10T00:18:43;0.70;99.90
26270;DHT22;15937;50.612;6.656;2022-12-10T00:22:44;0.70;99.90
26270;DHT22;15937;50.612;6.656;2022-12-10T00:26:46;0.60;99.90
26270;DHT22;15937;50.612;6.656;2022-12-10T00:30:48;0.70;99.90
26270;DHT22;15937;50.612;6.656;2022-12-10T00:34:49;0.60;99.90
26270;DHT22;15937;50.612;6.656;2022-12-10T00:38:51;0.70;99.90
26270;DHT22;15937;50.612;6.656;2022-12-10T00:42:52;0.50;99.90
26270;DHT22;15937;50.612;6.656;2022-12-10T00:46:54;0.50;99.90
26270;DHT22;15937;50.612;6.656;2022-12-10T00:51:00;0.50;99.90
26270;DHT22;15937;50.612;6.656;2022-12-10T00:55:02;0.50;99.90
26270;DHT22;15937;50.612;6.656;2022-12-10T00:59:04;0.50;99.90
26270;DHT22;15937;50.612;6.656;2022-12-10T01:03:05;0.30;99.90
26270;DHT22;15937;50.612;6.656;2022-12-10T01:07:07;0.40;99.90
26270;DHT22;15937;50.612;6.656;2022-12-10T01:11:12;0.40;99.90
26270;DHT22;15937;50.612;6.656;2022-12-10T01:15:14;0.40;99.90
26270;DHT22;15937;50.612;6.656;2022-12-10T01:19:16;0.40;99.90
26270;DHT22;15937;50.612;6.656;2022-12-10T01:23:18;0.50;99.90
26270;DHT22;15937;50.612;6.656;2022-12-10T01:27:19;0.50;99.90
26270;DHT22;15937;50.612;6.656;2022-12-10T01:31:25;0.50;99.90
26270;DHT22;15937;50.612;6.656;2022-12-10T01:35:27;0.40;99.90
26270;DHT22;15937;50.612;6.656;2022-12-10T01:39:28;0.50;99.90
26270;DHT22;15937;50.612;6.656;2022-12-10T01:43:48;0.50;99.90
26270;DHT22;15937;50.612;6.656;2022-12-10T01:47:50;0.40;99.90
26270;DHT22;15937;50.612;6.656;2022-12-10T01:51:53;0.60;99.90
26270;DHT22;15937;50.612;6.656;2022-12-10T01:55:54;0.40;99.90
26270;DHT22;15937;50.612;6.656;2022-12-10T01:59:57;0.50;99.90
26270;DHT22;15937;50.612;6.656;2022-12-10T02:12:39;0.40;99.90
26270;DHT22;15937;50.612;6.656;2022-12-10T02:16:48;0.40;99.90
26270;DHT22;15937;50.612;6.656;2022-12-10T02:20:54;0.20;99.90
26270;DHT22;15937;50.612;6.656;2022-12-10T02:24:57;0.30;99.90
26270;DHT22;15937;50.612;6.656;2022-12-10T02:33:04;0.40;99.90
26270;DHT22;15937;50.612;6.656;2022-12-10T02:37:10;0.40;99.90
26270;DHT22;15937;50.612;6.656;2022-12-10T02:41:15;0.40;99.90
26270;DHT22;15937;50.612;6.656;2022-12-10T02:45:18;0.30;99.90
26270;DHT22;15937;50.612;6.656;2022-12-10T02:49:19;0.20;99.90
26270;DHT22;15937;50.612;6.656;2022-12-10T02:53:22;0.50;99.90
26270;DHT22;15937;50.612;6.656;2022-12-10T03:10:04;0.70;99.90
26270;DHT22;15937;50.612;6.656;2022-12-10T03:14:13;0.50;99.90
26270;DHT22;15937;50.612;6.656;2022-12-10T03:18:15;0.40;99.90
26270;DHT22;15937;50.612;6.656;2022-12-10T03:22:18;0.60;99.90
26270;DHT22;15937;50.612;6.656;2022-12-10T03:26:21;0.40;99.90
26270;DHT22;15937;50.612;6.656;2022-12-10T03:30:23;0.60;99.90
26270;DHT22;15937;50.612;6.656;2022-12-10T03:34:25;0.60;99.90
26270;DHT22;15937;50.612;6.656;2022-12-10T03:38:27;0.50;99.90
26270;DHT22;15937;50.612;6.656;2022-12-10T03:42:28;0.50;99.90
26270;DHT22;15937;50.612;6.656;2022-12-10T03:46:30;0.50;99.90
26270;DHT22;15937;50.612;6.656;2022-12-10T03:50:32;0.40;99.90
26270;DHT22;15937;50.612;6.656;2022-12-10T03:54:34;0.40;99.90
26270;DHT22;15937;50.612;6.656;2022-12-10T03:58:35;0.20;99.90
26270;DHT22;15937;50.612;6.656;2022-12-10T04:02:37;0.20;99.90
26270;DHT22;15937;50.612;6.656;2022-12-10T04:06:40;0.20;99.90
26270;DHT22;15937;50.612;6.656;2022-12-10T04:10:42;0.20;99.90
26270;DHT22;15937;50.612;6.656;2022-12-10T04:14:43;0.00;99.90
26270;DHT22;15937;50.612;6.656;2022-12-10T04:19:05;0.10;99.90
26270;DHT22;15937;50.612;6.656;2022-12-10T04:23:08;0.00;99.90
26270;DHT22;15937;50.612;6.656;2022-12-10T04:27:29;-0.10;99.90
26270;DHT22;15937;50.612;6.656;2022-12-10T04:31:31;-0.10;99.90
26270;DHT22;15937;50.612;6.656;2022-12-10T04:35:33;-0.10;99.90
26270;DHT22;15937;50.612;6.656;2022-12-10T04:39:34;-0.20;99.90
26270;DHT22;15937;50.612;6.656;2022-12-10T04:43:36;-0.20;99.90
26270;DHT22;15937;50.612;6.656;2022-12-10T04:47:38;-0.20;99.90
26270;DHT22;15937;50.612;6.656;2022-12-10T04:51:40;-0.20;99.90
26270;DHT22;15937;50.612;6.656;2022-12-10T04:55:42;-0.20;99.90
26270;DHT22;15937;50.612;6.656;2022-12-10T04:59:44;-0.30;99.90
26270;DHT22;15937;50.612;6.656;2022-12-10T05:03:46;-0.40;99.90
26270;DHT22;15937;50.612;6.656;2022-12-10T05:07:48;-0.40;99.90
26270;DHT22;15937;50.612;6.656;2022-12-10T05:11:50;-0.50;99.90
26270;DHT22;15937;50.612;6.656;2022-12-10T05:15:52;-0.40;99.90
26270;DHT22;15937;50.612;6.656;2022-12-10T05:19:54;-0.50;99.90
26270;DHT22;15937;50.612;6.656;2022-12-10T05:23:56;-0.40;99.90
26270;DHT22;15937;50.612;6.656;2022-12-10T05:27:58;-0.40;99.90
26270;DHT22;15937;50.612;6.656;2022-12-10T05:32:02;-0.50;99.90
26270;DHT22;15937;50.612;6.656;2022-12-10T05:36:04;-0.40;99.90
26270;DHT22;15937;50.612;6.656;2022-12-10T05:40:06;-0.40;99.90
26270;DHT22;15937;50.612;6.656;2022-12-10T05:44:09;-0.50;99.90
26270;DHT22;15937;50.612;6.656;2022-12-10T05:48:12;-0.40;99.90
26270;DHT22;15937;50.612;6.656;2022-12-10T05:52:15;-0.50;99.90
26270;DHT22;15937;50.612;6.656;2022-12-10T05:56:18;-0.50;99.90
26270;DHT22;15937;50.612;6.656;2022-12-10T06:00:20;-0.40;99.90
26270;DHT22;15937;50.612;6.656;2022-12-10T06:04:25;-0.40;99.90
26270;DHT22;15937;50.612;6.656;2022-12-10T06:08:27;-0.40;99.90
26270;DHT22;15937;50.612;6.656;2022-12-10T06:12:28;-0.40;99.90
26270;DHT22;15937;50.612;6.656;2022-12-10T06:16:30;-0.50;99.90
26270;DHT22;15937;50.612;6.656;2022-12-10T06:20:32;-0.40;99.90
26270;DHT22;15937;50.612;6.656;2022-12-10T06:24:33;-0.10;99.90
26270;DHT22;15937;50.612;6.656;2022-12-10T06:28:35;-0.10;99.90
26270;DHT22;15937;50.612;6.656;2022-12-10T06:32:37;-0.10;99.90
26270;DHT22;15937;50.612;6.656;2022-12-10T06:36:39;-0.10;99.90
26270;DHT22;15937;50.612;6.656;2022-12-10T06:40:40;0.00;99.90
26270;DHT22;15937;50.612;6.656;2022-12-10T06:44:42;-0.10;99.90
26270;DHT22;15937;50.612;6.656;2022-12-10T06:48:44;0.00;99.90
26270;DHT22;15937;50.612;6.656;2022-12-10T06:52:46;-0.20;99.90
26270;DHT22;15937;50.612;6.656;2022-12-10T06:56:55;-0.10;99.90
26270;DHT22;15937;50.612;6.656;2022-12-10T07:01:14;0.00;99.90
26270;DHT22;15937;50.612;6.656;2022-12-10T07:05:16;-0.10;99.90
26270;DHT22;15937;50.612;6.656;2022-12-10T07:09:18;-0.10;99.90
26270;DHT22;15937;50.612;6.656;2022-12-10T07:13:20;-0.10;99.90
26270;DHT22;15937;50.612;6.656;2022-12-10T07:17:30;-0.20;99.90
26270;DHT22;15937;50.612;6.656;2022-12-10T07:21:41;0.00;99.90
26270;DHT22;15937;50.612;6.656;2022-12-10T07:25:45;0.00;99.90
26270;DHT22;15937;50.612;6.656;2022-12-10T07:29:47;0.00;99.90
26270;DHT22;15937;50.612;6.656;2022-12-10T07:33:50;0.10;99.90
26270;DHT22;15937;50.612;6.656;2022-12-10T07:37:52;0.00;99.90
26270;DHT22;15937;50.612;6.656;2022-12-10T07:41:54;0.10;99.90
26270;DHT22;15937;50.612;6.656;2022-12-10T07:45:56;0.00;99.90
26270;DHT22;15937;50.612;6.656;2022-12-10T07:50:03;0.10;99.90
26270;DHT22;15937;50.612;6.656;2022-12-10T07:54:05;0.00;99.90
26270;DHT22;15937;50.612;6.656;2022-12-10T07:58:07;0.20;99.90
26270;DHT22;15937;50.612;6.656;2022-12-10T08:02:08;0.20;99.90
26270;DHT22;15937;50.612;6.656;2022-12-10T08:06:15;0.00;99.90
26270;DHT22;15937;50.612;6.656;2022-12-10T08:10:17;0.20;99.90
26270;DHT22;15937;50.612;6.656;2022-12-10T08:14:18;0.20;99.90
26270;DHT22;15937;50.612;6.656;2022-12-10T08:18:20;0.20;99.90
26270;DHT22;15937;50.612;6.656;2022-12-10T08:22:22;0.20;99.90
26270;DHT22;15937;50.612;6.656;2022-12-10T08:26:24;0.20;99.90
26270;DHT22;15937;50.612;6.656;2022-12-10T08:30:27;0.10;99.90
26270;DHT22;15937;50.612;6.656;2022-12-10T08:34:28;0.30;99.90
26270;DHT22;15937;50.612;6.656;2022-12-10T08:38:30;0.30;99.90
26270;DHT22;15937;50.612;6.656;2022-12-10T08:42:33;0.30;99.90
26270;DHT22;15937;50.612;6.656;2022-12-10T08:46:34;0.30;99.90
26270;DHT22;15937;50.612;6.656;2022-12-10T08:50:37;0.20;99.90
26270;DHT22;15937;50.612;6.656;2022-12-10T08:54:38;0.00;99.90
26270;DHT22;15937;50.612;6.656;2022-12-10T08:58:40;0.00;99.90
26270;DHT22;15937;50.612;6.656;2022-12-10T09:02:42;0.10;99.90
26270;DHT22;15937;50.612;6.656;2022-12-10T09:06:44;0.20;99.90
26270;DHT22;15937;50.612;6.656;2022-12-10T09:10:45;0.20;99.90
26270;DHT22;15937;50.612;6.656;2022-12-10T09:14:47;0.20;99.90
26270;DHT22;15937;50.612;6.656;2022-12-10T09:18:49;0.40;99.90
26270;DHT22;15937;50.612;6.656;2022-12-10T09:22:50;0.30;99.90
26270;DHT22;15937;50.612;6.656;2022-12-10T09:26:52;0.50;99.90
26270;DHT22;15937;50.612;6.656;2022-12-10T09:31:00;0.10;99.90
26270;DHT22;15937;50.612;6.656;2022-12-10T09:35:02;0.20;99.90
26270;DHT22;15937;50.612;6.656;2022-12-10T09:52:00;0.60;99.90
26270;DHT22;15937;50.612;6.656;2022-12-10T09:56:02;0.40;99.90
26270;DHT22;15937;50.612;6.656;2022-12-10T10:04:18;0.10;99.90
26270;DHT22;15937;50.612;6.656;2022-12-10T10:12:21;0.60;99.90
26270;DHT22;15937;50.612;6.656;2022-12-10T10:16:24;0.50;99.90
26270;DHT22;15937;50.612;6.656;2022-12-10T10:20:27;0.50;99.90
26270;DHT22;15937;50.612;6.656;2022-12-10T10:24:36;0.60;99.90
26270;DHT22;15937;50.612;6.656;2022-12-10T10:28:38;0.80;99.90
26270;DHT22;15937;50.612;6.656;2022-12-10T10:36:43;0.80;99.90
26270;DHT22;15937;50.612;6.656;2022-12-10T10:40:46;1.00;99.90
26270;DHT22;15937;50.612;6.656;2022-12-10T10:44:50;1.00;99.90
26270;DHT22;15937;50.612;6.656;2022-12-10T10:48:51;1.10;99.90
26270;DHT22;15937;50.612;6.656;2022-12-10T11:01:44;1.30;99.90
26270;DHT22;15937;50.612;6.656;2022-12-10T11:05:47;1.10;99.90
26270;DHT22;15937;50.612;6.656;2022-12-10T11:09:49;1.30;99.90
26270;DHT22;15937;50.612;6.656;2022-12-10T11:13:51;1.40;99.90
26270;DHT22;15937;50.612;6.656;2022-12-10T11:17:54;1.50;99.90
26270;DHT22;15937;50.612;6.656;2022-12-10T11:22:01;1.60;99.90
26270;DHT22;15937;50.612;6.656;2022-12-10T11:26:23;1.60;99.90
26270;DHT22;15937;50.612;6.656;2022-12-10T11:30:31;1.50;99.90
26270;DHT22;15937;50.612;6.656;2022-12-10T11:34:38;1.60;99.90
26270;DHT22;15937;50.612;6.656;2022-12-10T11:55:35;1.60;99.90
26270;DHT22;15937;50.612;6.656;2022-12-10T11:59:50;1.40;99.90
26270;DHT22;15937;50.612;6.656;2022-12-10T12:20:29;1.60;99.90
26270;DHT22;15937;50.612;6.656;2022-12-10T12:24:33;1.80;99.90
26270;DHT22;15937;50.612;6.656;2022-12-10T12:28:38;1.40;99.90
26270;DHT22;15937;50.612;6.656;2022-12-10T12:36:56;1.60;99.90
26270;DHT22;15937;50.612;6.656;2022-12-10T12:41:05;1.70;99.90
26270;DHT22;15937;50.612;6.656;2022-12-10T12:49:42;1.40;99.90
26270;DHT22;15937;50.612;6.656;2022-12-10T12:53:44;1.50;99.90
26270;DHT22;15937;50.612;6.656;2022-12-10T12:57:47;1.40;99.90
26270;DHT22;15937;50.612;6.656;2022-12-10T13:01:53;1.30;99.90
26270;DHT22;15937;50.612;6.656;2022-12-10T13:05:55;1.40;99.90
26270;DHT22;15937;50.612;6.656;2022-12-10T13:26:41;1.50;99.90
26270;DHT22;15937;50.612;6.656;2022-12-10T13:30:43;1.40;99.90
26270;DHT22;15937;50.612;6.656;2022-12-10T13:34:44;1.60;99.90
26270;DHT22;15937;50.612;6.656;2022-12-10T13:43:23;1.70;99.90
26270;DHT22;15937;50.612;6.656;2022-12-10T13:47:52;1.60;99.90
26270;DHT22;15937;50.612;6.656;2022-12-10T13:51:58;1.50;99.90
26270;DHT22;15937;50.612;6.656;2022-12-10T13:56:04;1.20;99.90
26270;DHT22;15937;50.612;6.656;2022-12-10T14:00:21;1.30;99.90
26270;DHT22;15937;50.612;6.656;2022-12-10T14:12:52;1.00;99.90
26270;DHT22;15937;50.612;6.656;2022-12-10T14:16:55;1.10;99.90
26270;DHT22;15937;50.612;6.656;2022-12-10T14:20:57;1.10;99.90
26270;DHT22;15937;50.612;6.656;2022-12-10T14:25:04;1.10;99.90
26270;DHT22;15937;50.612;6.656;2022-12-10T14:29:16;1.00;99.90
26270;DHT22;15937;50.612;6.656;2022-12-10T14:33:23;1.10;99.90
26270;DHT22;15937;50.612;6.656;2022-12-10T14:37:26;0.90;99.90
26270;DHT22;15937;50.612;6.656;2022-12-10T14:41:29;0.90;99.90
26270;DHT22;15937;50.612;6.656;2022-12-10T14:45:53;1.00;99.90
26270;DHT22;15937;50.612;6.656;2022-12-10T14:49:57;0.80;99.90
26270;DHT22;15937;50.612;6.656;2022-12-10T14:54:02;0.80;99.90
26270;DHT22;15937;50.612;6.656;2022-12-10T14:58:04;0.80;99.90
26270;DHT22;15937;50.612;6.656;2022-12-10T15:02:27;0.70;99.90
26270;DHT22;15937;50.612;6.656;2022-12-10T15:06:32;0.50;99.90
26270;DHT22;15937;50.612;6.656;2022-12-10T15:10:38;0.60;99.90
26270;DHT22;15937;50.612;6.656;2022-12-10T15:14:42;0.50;99.90
26270;DHT22;15937;50.612;6.656;2022-12-10T15:18:44;0.60;99.90
26270;DHT22;15937;50.612;6.656;2022-12-10T15:22:46;0.60;99.90
26270;DHT22;15937;50.612;6.656;2022-12-10T15:26:49;0.80;99.90
26270;DHT22;15937;50.612;6.656;2022-12-10T15:30:51;0.60;99.90
26270;DHT22;15937;50.612;6.656;2022-12-10T15:34:54;0.60;99.90
26270;DHT22;15937;50.612;6.656;2022-12-10T15:38:57;0.50;99.90
26270;DHT22;15937;50.612;6.656;2022-12-10T15:43:12;0.40;99.90
26270;DHT22;15937;50.612;6.656;2022-12-10T15:47:16;0.30;99.90
26270;DHT22;15937;50.612;6.656;2022-12-10T15:51:18;0.10;99.90
26270;DHT22;15937;50.612;6.656;2022-12-10T15:55:20;0.10;99.90
26270;DHT22;15937;50.612;6.656;2022-12-10T15:59:21;0.00;99.90
26270;DHT22;15937;50.612;6.656;2022-12-10T16:03:24;0.20;99.90
26270;DHT22;15937;50.612;6.656;2022-12-10T16:07:28;0.20;99.90
26270;DHT22;15937;50.612;6.656;2022-12-10T16:11:30;0.20;99.90
26270;DHT22;15937;50.612;6.656;2022-12-10T16:15:35;0.10;99.90
26270;DHT22;15937;50.612;6.656;2022-12-10T16:19:39;0.20;99.90
26270;DHT22;15937;50.612;6.656;2022-12-10T16:23:41;0.10;99.90
26270;DHT22;15937;50.612;6.656;2022-12-10T16:27:43;0.20;99.90
26270;DHT22;15937;50.612;6.656;2022-12-10T16:31:45;0.20;99.90
26270;DHT22;15937;50.612;6.656;2022-12-10T16:35:47;0.10;99.90
26270;DHT22;15937;50.612;6.656;2022-12-10T16:39:49;0.20;99.90
26270;DHT22;15937;50.612;6.656;2022-12-10T16:43:54;0.20;99.90
26270;DHT22;15937;50.612;6.656;2022-12-10T16:47:56;0.40;99.90
26270;DHT22;15937;50.612;6.656;2022-12-10T16:51:58;0.40;99.90
26270;DHT22;15937;50.612;6.656;2022-12-10T16:55:59;0.30;99.90
26270;DHT22;15937;50.612;6.656;2022-12-10T17:00:02;0.30;99.90
26270;DHT22;15937;50.612;6.656;2022-12-10T17:04:04;0.30;99.90
26270;DHT22;15937;50.612;6.656;2022-12-10T17:08:06;0.40;99.90
26270;DHT22;15937;50.612;6.656;2022-12-10T17:12:08;0.30;99.90
26270;DHT22;15937;50.612;6.656;2022-12-10T17:16:13;0.30;99.90
26270;DHT22;15937;50.612;6.656;2022-12-10T17:20:17;0.20;99.90
26270;DHT22;15937;50.612;6.656;2022-12-10T17:24:19;0.20;99.90
26270;DHT22;15937;50.612;6.656;2022-12-10T17:28:21;0.00;99.90
26270;DHT22;15937;50.612;6.656;2022-12-10T17:32:23;0.00;99.90
26270;DHT22;15937;50.612;6.656;2022-12-10T17:36:25;0.00;99.90
26270;DHT22;15937;50.612;6.656;2022-12-10T17:40:28;-0.10;99.90
26270;DHT22;15937;50.612;6.656;2022-12-10T17:44:30;-0.20;99.90
26270;DHT22;15937;50.612;6.656;2022-12-10T17:48:33;-0.20;99.90
26270;DHT22;15937;50.612;6.656;2022-12-10T17:52:34;-0.30;99.90
26270;DHT22;15937;50.612;6.656;2022-12-10T17:56:36;-0.30;99.90
26270;DHT22;15937;50.612;6.656;2022-12-10T18:00:39;-0.40;99.90
26270;DHT22;15937;50.612;6.656;2022-12-10T18:04:40;-0.40;99.90
26270;DHT22;15937;50.612;6.656;2022-12-10T18:08:42;-0.40;99.90
26270;DHT22;15937;50.612;6.656;2022-12-10T18:12:44;-0.50;99.90
26270;DHT22;15937;50.612;6.656;2022-12-10T18:16:46;-0.60;99.90
26270;DHT22;15937;50.612;6.656;2022-12-10T18:20:48;-0.50;99.90
26270;DHT22;15937;50.612;6.656;2022-12-10T18:24:49;-0.50;99.90
26270;DHT22;15937;50.612;6.656;2022-12-10T18:28:52;-0.50;99.90
26270;DHT22;15937;50.612;6.656;2022-12-10T18:32:54;-0.50;99.90
26270;DHT22;15937;50.612;6.656;2022-12-10T18:36:56;-0.60;99.90
26270;DHT22;15937;50.612;6.656;2022-12-10T18:40:58;-0.60;99.90
26270;DHT22;15937;50.612;6.656;2022-12-10T18:45:00;-0.80;99.90
26270;DHT22;15937;50.612;6.656;2022-12-10T18:49:02;-0.70;99.90
26270;DHT22;15937;50.612;6.656;2022-12-10T18:53:05;-0.80;99.90
26270;DHT22;15937;50.612;6.656;2022-12-10T18:57:09;-0.80;99.90
26270;DHT22;15937;50.612;6.656;2022-12-10T19:01:30;-0.90;99.90
26270;DHT22;15937;50.612;6.656;2022-12-10T19:05:32;-0.90;99.90
26270;DHT22;15937;50.612;6.656;2022-12-10T19:09:34;-1.00;99.90
26270;DHT22;15937;50.612;6.656;2022-12-10T19:13:38;-1.10;99.90
26270;DHT22;15937;50.612;6.656;2022-12-10T19:17:40;-1.20;99.90
26270;DHT22;15937;50.612;6.656;2022-12-10T19:21:42;-1.10;99.90
26270;DHT22;15937;50.612;6.656;2022-12-10T19:25:45;-1.20;99.90
26270;DHT22;15937;50.612;6.656;2022-12-10T19:29:46;-1.10;99.90
26270;DHT22;15937;50.612;6.656;2022-12-10T19:33:48;-1.10;99.90
26270;DHT22;15937;50.612;6.656;2022-12-10T19:37:50;-1.10;99.90
26270;DHT22;15937;50.612;6.656;2022-12-10T19:41:57;-1.20;99.90
26270;DHT22;15937;50.612;6.656;2022-12-10T19:45:59;-1.20;99.90
26270;DHT22;15937;50.612;6.656;2022-12-10T19:50:01;-1.10;99.90
26270;DHT22;15937;50.612;6.656;2022-12-10T19:54:02;-1.00;99.90
26270;DHT22;15937;50.612;6.656;2022-12-10T19:58:04;-1.10;99.90
26270;DHT22;15937;50.612;6.656;2022-12-10T20:02:06;-1.20;99.90
26270;DHT22;15937;50.612;6.656;2022-12-10T20:06:15;-0.90;99.90
26270;DHT22;15937;50.612;6.656;2022-12-10T20:10:23;-0.80;99.90
26270;DHT22;15937;50.612;6.656;2022-12-10T20:14:25;-0.70;99.90
26270;DHT22;15937;50.612;6.656;2022-12-10T20:18:27;-0.60;99.90
26270;DHT22;15937;50.612;6.656;2022-12-10T20:22:28;-0.50;99.90
26270;DHT22;15937;50.612;6.656;2022-12-10T20:26:37;-0.50;99.90
26270;DHT22;15937;50.612;6.656;2022-12-10T20:30:39;-0.40;99.90
26270;DHT22;15937;50.612;6.656;2022-12-10T20:34:41;-0.30;99.90
26270;DHT22;15937;50.612;6.656;2022-12-10T20:38:42;-0.30;99.90
26270;DHT22;15937;50.612;6.656;2022-12-10T20:42:44;-0.30;99.90
26270;DHT22;15937;50.612;6.656;2022-12-10T20:46:49;-0.40;99.90
26270;DHT22;15937;50.612;6.656;2022-12-10T20:50:51;-0.30;99.90
26270;DHT22;15937;50.612;6.656;2022-12-10T20:54:53;-0.50;99.90
26270;DHT22;15937;50.612;6.656;2022-12-10T20:58:55;-0.40;99.90
26270;DHT22;15937;50.612;6.656;2022-12-10T21:02:57;-0.50;99.90
26270;DHT22;15937;50.612;6.656;2022-12-10T21:07:02;-0.40;99.90
26270;DHT22;15937;50.612;6.656;2022-12-10T21:11:08;-0.40;99.90
26270;DHT22;15937;50.612;6.656;2022-12-10T21:15:09;-0.30;99.90
26270;DHT22;15937;50.612;6.656;2022-12-10T21:19:23;-0.60;99.90
26270;DHT22;15937;50.612;6.656;2022-12-10T21:23:26;-0.50;99.90
26270;DHT22;15937;50.612;6.656;2022-12-10T21:27:29;-0.40;99.90
26270;DHT22;15937;50.612;6.656;2022-12-10T21:31:31;-0.30;99.90
26270;DHT22;15937;50.612;6.656;2022-12-10T21:35:34;-0.30;99.90
26270;DHT22;15937;50.612;6.656;2022-12-10T21:39:37;-0.30;99.90
26270;DHT22;15937;50.612;6.656;2022-12-10T21:43:41;-0.20;99.90
26270;DHT22;15937;50.612;6.656;2022-12-10T21:47:46;-0.20;99.90
26270;DHT22;15937;50.612;6.656;2022-12-10T21:51:47;-0.30;99.90
26270;DHT22;15937;50.612;6.656;2022-12-10T21:55:49;-0.30;99.90
26270;DHT22;15937;50.612;6.656;2022-12-10T21:59:51;-0.30;99.90
26270;DHT22;15937;50.612;6.656;2022-12-10T22:03:52;-0.40;99.90
26270;DHT22;15937;50.612;6.656;2022-12-10T22:07:54;-0.60;99.90
26270;DHT22;15937;50.612;6.656;2022-12-10T22:11:56;-0.50;99.90
26270;DHT22;15937;50.612;6.656;2022-12-10T22:15:59;-0.60;99.90
26270;DHT22;15937;50.612;6.656;2022-12-10T22:20:01;-0.60;99.90
26270;DHT22;15937;50.612;6.656;2022-12-10T22:24:09;-0.60;99.90
26270;DHT22;15937;50.612;6.656;2022-12-10T22:28:11;-0.50;99.90
26270;DHT22;15937;50.612;6.656;2022-12-10T22:32:12;-0.60;99.90
26270;DHT22;15937;50.612;6.656;2022-12-10T22:36:14;-0.60;99.90
26270;DHT22;15937;50.612;6.656;2022-12-10T22:40:28;-0.40;99.90
26270;DHT22;15937;50.612;6.656;2022-12-10T22:44:29;-0.50;99.90
26270;DHT22;15937;50.612;6.656;2022-12-10T22:48:31;-0.50;99.90
26270;DHT22;15937;50.612;6.656;2022-12-10T22:52:33;-0.40;99.90
26270;DHT22;15937;50.612;6.656;2022-12-10T22:56:35;-0.30;99.90
26270;DHT22;15937;50.612;6.656;2022-12-10T23:00:37;-0.30;99.90
26270;DHT22;15937;50.612;6.656;2022-12-10T23:04:39;-0.40;99.90
26270;DHT22;15937;50.612;6.656;2022-12-10T23:08:41;-0.20;99.90
26270;DHT22;15937;50.612;6.656;2022-12-10T23:12:43;-0.30;99.90
26270;DHT22;15937;50.612;6.656;2022-12-10T23:17:03;-0.40;99.90
26270;DHT22;15937;50.612;6.656;2022-12-10T23:21:41;-0.30;99.90
26270;DHT22;15937;50.612;6.656;2022-12-10T23:25:35;-0.30;99.90
26270;DHT22;15937;50.612;6.656;2022-12-10T23:29:39;-0.20;99.90
26270;DHT22;15937;50.612;6.656;2022-12-10T23:33:41;-0.50;99.90
26270;DHT22;15937;50.612;6.656;2022-12-10T23:37:43;-0.50;99.90
26270;DHT22;15937;50.612;6.656;2022-12-10T23:41:45;-0.60;99.90
26270;DHT22;15937;50.612;6.656;2022-12-10T23:45:47;-0.70;99.90
26270;DHT22;15937;50.612;6.656;2022-12-10T23:49:49;-0.60;99.90
26270;DHT22;15937;50.612;6.656;2022-12-10T23:53:51;-0.60;99.90
26270;DHT22;15937;50.612;6.656;2022-12-10T23:57:53;-0.70;99.90
